Flight Track Log - Related Links

Times and Time Zones

All times are in EDT time to prevent confusion due to time zone crossing. See the DAL268 flight status page for this flight to view local times or setup timezone preferences in your user account.

Time Position Orientation Groundspeed Altitude Reporting Facility
EDT Latitude Longitude Course Direction KTS MPH feet Rate Location/Type
Wed 02:22:25 PM 37.6266 -122.3680 302° West 167 192 200  Level FlightAware ADS-B
Wed 02:22:34 PM 37.6319 -122.3640 31° Northeast 161 185 600 2,333 Climbing FlightAware ADS-B
Wed 02:22:43 PM 37.6378 -122.3580 39° Northeast 171 197 900 2,000 Climbing FlightAware ADS-B
Wed 02:22:52 PM 37.6428 -122.3510 48° Northeast 179 206 1,200 1,895 Climbing FlightAware ADS-B
Wed 02:23:02 PM 37.6481 -122.3430 50° Northeast 189 217 1,500 1,920 Climbing FlightAware ADS-B
Wed 02:23:17 PM 37.6577 -122.3300 47° Northeast 206 237 2,000 2,129 Climbing FlightAware ADS-B
Wed 02:23:33 PM 37.6678 -122.3150 50° Northeast 221 254 2,600 2,063 Climbing FlightAware ADS-B
Wed 02:23:49 PM 37.6792 -122.2990 48° Northeast 243 280 3,100 2,323 Climbing FlightAware ADS-B
Wed 02:24:04 PM 37.6910 -122.2820 49° Northeast 254 292 3,800 3,000 Climbing FlightAware ADS-B
Wed 02:24:21 PM 37.7044 -122.2630 48° Northeast 255 293 4,700 3,290 Climbing FlightAware ADS-B
Wed 02:24:35 PM 37.7153 -122.2470 49° Northeast 260 299 5,500 3,000 Climbing FlightAware ADS-B
Wed 02:24:51 PM 37.7280 -122.2280 50° Northeast 265 305 6,200 3,176 Climbing FlightAware ADS-B
Wed 02:25:09 PM 37.7421 -122.2070 50° Northeast 266 306 7,300 3,257 Climbing FlightAware ADS-B
Wed 02:25:26 PM 37.7557 -122.1870 49° Northeast 270 311 8,100 3,000 Climbing FlightAware ADS-B
Wed 02:25:41 PM 37.7681 -122.1680 50° Northeast 275 316 8,900 2,903 Climbing FlightAware ADS-B
Wed 02:25:57 PM 37.7812 -122.1480 50° Northeast 280 322 9,600 2,286 Climbing FlightAware ADS-B
Wed 02:26:23 PM 37.8063 -122.1190 42° Northeast 298 343 10,500 1,714 Climbing FlightAware ADS-B
Wed 02:26:32 PM 37.8159 -122.1090 39° Northeast 308 354 10,600 1,171 Climbing FlightAware ADS-B
Wed 02:27:04 PM 37.8558 -122.0740 35° Northeast 343 395 11,300 1,548 Climbing FlightAware ADS-B
Wed 02:27:34 PM 37.8968 -122.0380 35° Northeast 363 418 12,200 2,164 Climbing FlightAware ADS-B
Wed 02:28:05 PM 37.9396 -122.0000 35° Northeast 371 427 13,500 2,557 Climbing FlightAware ADS-B
Wed 02:28:35 PM 37.9821 -121.9630 34° Northeast 376 433 14,800 2,545 Climbing FlightAware ADS-B
Wed 02:29:11 PM 38.0335 -121.9170 35° Northeast 381 438 16,300 2,081 Climbing FlightAware ADS-B
Wed 02:30:39 PM 38.1620 -121.7980 36° Northeast 412 474 19,100 1,869 Climbing FlightAware ADS-B
Wed 02:31:13 PM 38.2000 -121.7340 53° Northeast 422 486 20,100 1,775 Climbing FlightAware ADS-B
Wed 02:31:50 PM 38.2490 -121.6580 51° Northeast 434 499 21,200 1,862 Climbing FlightAware ADS-B
Wed 02:32:40 PM 38.3150 -121.5590 50° Northeast 440 506 22,800 1,846 Climbing FlightAware ADS-B
Wed 02:33:21 PM 38.3680 -121.4820 49° Northeast 442 509 24,000 1,769 Climbing FlightAware ADS-B
Wed 02:33:58 PM 38.4180 -121.4050 50° Northeast 449 517 25,100 1,579 Climbing FlightAware ADS-B
Wed 02:34:37 PM 38.4690 -121.3230 52° Northeast 456 525 26,000 1,350 Climbing FlightAware ADS-B
Wed 02:35:18 PM 38.5240 -121.2360 51° Northeast 463 533 26,900 1,308 Climbing FlightAware ADS-B
Wed 02:35:55 PM 38.5740 -121.1570 51° Northeast 468 539 27,700 1,231 Climbing FlightAware ADS-B
Wed 02:36:36 PM 38.6280 -121.0690 52° Northeast 473 544 28,500 1,548 Climbing FlightAware ADS-B
Wed 02:37:28 PM 38.7000 -120.9540 51° Northeast 466 536 30,100 1,756 Climbing FlightAware ADS-B
Wed 02:37:58 PM 38.7400 -120.8910 51° Northeast 463 533 30,900 692 Climbing FlightAware ADS-B
Wed 02:38:46 PM 38.7980 -120.7960 52° Northeast 459 528 31,000 59 Climbing FlightAware ADS-B
Wed 02:39:39 PM 38.8729 -120.6753 51° Northeast 460 529 31,000  Level FlightAware ADS-B
Wed 02:40:12 PM 38.9174 -120.6031 52° Northeast 461 531 31,000  Level FlightAware ADS-B
Wed 02:40:42 PM 38.9542 -120.5432 52° Northeast 462 532 31,000 917 Level FlightAware ADS-B
Wed 02:41:24 PM 39.0074 -120.4564 52° Northeast 459 528 32,100 1,333 Climbing FlightAware ADS-B
Wed 02:41:54 PM 39.0517 -120.3843 52° Northeast 462 532 32,600 643 Climbing FlightAware ADS-B
Wed 02:42:48 PM 39.1217 -120.2695 52° Northeast 462 532 33,000 282 Climbing FlightAware ADS-B
Wed 02:43:19 PM 39.1628 -120.2020 52° Northeast 462 532 33,000  Level FlightAware ADS-B
Wed 02:43:58 PM 39.2139 -120.1176 52° Northeast 461 531 33,000  Level FlightAware ADS-B
Wed 02:44:36 PM 39.2603 -120.0409 52° Northeast 460 529 33,000  Level FlightAware ADS-B
Wed 02:45:06 PM 39.3037 -119.9692 52° Northeast 460 529 33,000  Level FlightAware ADS-B
Wed 02:45:40 PM 39.3455 -119.8998 52° Northeast 461 531 33,000  Level FlightAware ADS-B
Wed 02:46:10 PM 39.3867 -119.8313 52° Northeast 461 531 33,000  Level FlightAware ADS-B
Wed 02:46:53 PM 39.4422 -119.7389 52° Northeast 460 529 33,000  Level FlightAware ADS-B
Wed 02:47:23 PM 39.4810 -119.6740 52° Northeast 460 529 33,000  Level FlightAware ADS-B
Wed 02:47:53 PM 39.5211 -119.6070 52° Northeast 460 529 33,000  Level FlightAware ADS-B
Wed 02:48:30 PM 39.5680 -119.5281 52° Northeast 459 528 33,000  Level FlightAware ADS-B
Wed 02:49:00 PM 39.6080 -119.4609 52° Northeast 459 528 33,000  Level FlightAware ADS-B
Wed 02:49:32 PM 39.6493 -119.3912 52° Northeast 457 526 33,000  Level FlightAware ADS-B
Wed 02:50:02 PM 39.6855 -119.3279 53° Northeast 458 527 33,000  Level FlightAware ADS-B
Wed 02:50:44 PM 39.7312 -119.2254 60° Northeast 462 532 33,000  Level FlightAware ADS-B
Wed 02:51:15 PM 39.7580 -119.1543 64° Northeast 461 531 33,000  Level FlightAware ADS-B
Wed 02:51:56 PM 39.7984 -119.0481 64° Northeast 460 529 33,000  Level FlightAware ADS-B
Wed 02:52:26 PM 39.8253 -118.9764 64° Northeast 459 528 33,000  Level FlightAware ADS-B
Wed 02:53:12 PM 39.8685 -118.8597 64° Northeast 458 527 33,000  Level FlightAware ADS-B
Wed 02:53:43 PM 39.8952 -118.7873 64° Northeast 458 527 33,000  Level FlightAware ADS-B
Wed 02:54:15 PM 39.9250 -118.7050 65° Northeast 456 525 33,000  Level FlightAware ADS-B
Wed 02:54:28 PM 39.9380 -118.6707 64° Northeast 457 526 33,000  Level FlightAware ADS-B
Wed 02:54:59 PM 39.9652 -118.5965 64° Northeast 457 526 33,000  Level FlightAware ADS-B
Wed 02:55:39 PM 40.0020 -118.4961 64° Northeast 457 526 33,000  Level FlightAware ADS-B
Wed 02:56:57 PM 40.0730 -118.3030 64° Northeast 454 522 33,000  Level FlightAware ADS-B
Wed 02:57:40 PM 40.1120 -118.1980 64° Northeast 454 522 33,000  Level FlightAware ADS-B
Wed 02:58:52 PM 40.1680 -118.0470 64° Northeast 454 522 33,000  Level FlightAware ADS-B
Wed 02:59:28 PM 40.1960 -117.9710 64° Northeast 454 522 33,000  Level FlightAware ADS-B
Wed 03:00:04 PM 40.2240 -117.8960 64° Northeast 454 522 33,000  Level FlightAware ADS-B
Wed 03:00:40 PM 40.2530 -117.8200 63° Northeast 454 522 33,000  Level FlightAware ADS-B
Wed 03:01:16 PM 40.2810 -117.7440 64° Northeast 454 522 33,000  Level FlightAware ADS-B
Wed 03:01:53 PM 40.3100 -117.6670 64° Northeast 454 522 33,000  Level FlightAware ADS-B
Wed 03:02:52 PM 40.3560 -117.5420 64° Northeast 454 522 33,000  Level FlightAware ADS-B
Wed 03:03:41 PM 40.3940 -117.4390 64° Northeast 454 522 33,000  Level FlightAware ADS-B
Wed 03:04:05 PM 40.4130 -117.3890 63° Northeast 454 522 33,000  Level FlightAware ADS-B
Wed 03:05:18 PM 40.4700 -117.2350 64° Northeast 454 522 33,000  Level FlightAware ADS-B
Wed 03:05:42 PM 40.4890 -117.1840 64° Northeast 454 522 33,000  Level FlightAware ADS-B
Wed 03:06:18 PM 40.5170 -117.1080 64° Northeast 454 522 33,000  Level FlightAware ADS-B
Wed 03:06:54 PM 40.5450 -117.0320 64° Northeast 454 522 33,000  Level FlightAware ADS-B
Wed 03:07:31 PM 40.5740 -116.9540 64° Northeast 454 522 33,000  Level FlightAware ADS-B
Wed 03:08:08 PM 40.6642 -116.6775 64° Northeast 443 510 33,000  Level Salt Lake Center
Wed 03:09:10 PM 40.7269 -116.5153 63° Northeast 444 511 33,000  Level Salt Lake Center
Wed 03:15:23 PM 41.0739 -115.6110 63° Northeast 439 505 33,000  Level FlightAware ADS-B
Wed 03:15:54 PM 41.1014 -115.5380 63° Northeast 438 504 33,000  Level FlightAware ADS-B
Wed 03:16:45 PM 41.1475 -115.4150 64° Northeast 436 502 33,000 43 Level FlightAware ADS-B
Wed 03:18:14 PM 41.2262 -115.2040 64° Northeast 436 502 33,100 235 Climbing FlightAware ADS-B
Wed 03:18:27 PM 41.2379 -115.1721 64° Northeast 434 499 33,400 1,371 Climbing FlightAware ADS-B
Wed 03:18:49 PM 41.2572 -115.1200 64° Northeast 432 497 33,900 1,444 Climbing FlightAware ADS-B
Wed 03:19:21 PM 41.2858 -115.0430 64° Northeast 430 495 34,700 1,532 Climbing FlightAware ADS-B
Wed 03:19:36 PM 41.2988 -115.0076 64° Northeast 425 489 35,100 1,400 Climbing FlightAware ADS-B
Wed 03:19:51 PM 41.3121 -114.9720 63° Northeast 428 493 35,400 1,067 Climbing FlightAware ADS-B
Wed 03:20:21 PM 41.3380 -114.9010 64° Northeast 428 493 35,900 1,050 Climbing FlightAware ADS-B
Wed 03:20:31 PM 41.3459 -114.8795 64° Northeast 424 488 36,100 1,143 Climbing FlightAware ADS-B
Wed 03:21:03 PM 41.3741 -114.8030 64° Northeast 426 490 36,700 1,050 Climbing FlightAware ADS-B
Wed 03:21:11 PM 41.3808 -114.7842 64° Northeast 422 486 36,800 439 Climbing FlightAware ADS-B
Wed 03:21:44 PM 41.4095 -114.7058 64° Northeast 421 484 37,000 353 Climbing FlightAware ADS-B
Wed 03:21:45 PM 41.4099 -114.7050 54° Northeast 426 490 37,000  Level FlightAware ADS-B
Wed 03:22:15 PM 41.4356 -114.6340 64° Northeast 419 482 37,000  Level FlightAware ADS-B
Wed 03:22:17 PM 41.4370 -114.6300 66° East 422 486 37,000  Level FlightAware ADS-B
Wed 03:22:47 PM 41.4630 -114.5590 64° Northeast 421 484 37,000  Level FlightAware ADS-B
Wed 03:23:02 PM 41.4752 -114.5251 64° Northeast 418 481 37,000  Level FlightAware ADS-B
Wed 03:23:18 PM 41.4890 -114.4870 64° Northeast 422 486 37,000  Level FlightAware ADS-B
Wed 03:23:32 PM 41.5005 -114.4553 64° Northeast 419 482 37,000  Level FlightAware ADS-B
Wed 03:23:48 PM 41.5145 -114.4170 64° Northeast 423 487 37,000  Level FlightAware ADS-B
Wed 03:24:11 PM 41.5334 -114.3642 64° Northeast 421 484 37,000  Level FlightAware ADS-B
Wed 03:24:19 PM 41.5402 -114.3450 65° Northeast 424 488 37,000  Level FlightAware ADS-B
Wed 03:24:49 PM 41.5659 -114.2740 64° Northeast 424 488 37,000  Level FlightAware ADS-B
Wed 03:25:19 PM 41.5914 -114.2020 65° Northeast 422 486 37,000  Level FlightAware ADS-B
Wed 03:25:28 PM 41.5985 -114.1828 64° Northeast 422 486 37,000  Level FlightAware ADS-B
Wed 03:25:49 PM 41.6167 -114.1320 64° Northeast 422 486 37,000  Level FlightAware ADS-B
Wed 03:25:59 PM 41.6250 -114.1088 65° Northeast 422 486 37,000  Level FlightAware ADS-B
Wed 03:26:20 PM 41.6427 -114.0590 64° Northeast 423 487 37,000  Level FlightAware ADS-B
Wed 03:26:39 PM 41.6580 -114.0161 65° Northeast 423 487 37,000  Level FlightAware ADS-B
Wed 03:26:51 PM 41.6686 -113.9860 65° Northeast 423 487 37,000  Level FlightAware ADS-B
Wed 03:27:09 PM 41.6835 -113.9443 64° Northeast 423 487 37,000  Level FlightAware ADS-B
Wed 03:27:23 PM 41.6948 -113.9120 65° Northeast 423 487 37,000  Level FlightAware ADS-B
Wed 03:27:44 PM 41.7130 -113.8614 64° Northeast 422 486 37,000  Level FlightAware ADS-B
Wed 03:28:02 PM 41.7281 -113.8190 64° Northeast 422 486 37,000  Level FlightAware ADS-B
Wed 03:28:15 PM 41.7383 -113.7899 65° Northeast 421 484 37,000  Level FlightAware ADS-B
Wed 03:28:49 PM 41.7671 -113.7080 65° Northeast 421 484 37,000  Level FlightAware ADS-B
Wed 03:28:51 PM 41.7687 -113.7035 64° Northeast 418 481 37,000  Level FlightAware ADS-B
Wed 03:29:22 PM 41.7933 -113.6333 65° Northeast 417 480 37,000  Level FlightAware ADS-B
Wed 03:29:24 PM 41.7952 -113.6280 65° Northeast 416 479 37,000  Level FlightAware ADS-B
Wed 03:29:54 PM 41.8200 -113.5570 65° Northeast 414 476 37,000  Level FlightAware ADS-B
Wed 03:30:05 PM 41.8289 -113.5318 64° Northeast 413 475 37,000  Level FlightAware ADS-B
Wed 03:30:25 PM 41.8447 -113.4870 65° Northeast 414 476 37,000  Level FlightAware ADS-B
Wed 03:30:36 PM 41.8537 -113.4609 65° Northeast 414 476 37,000  Level FlightAware ADS-B
Wed 03:31:17 PM 41.8865 -113.3671 65° Northeast 415 478 37,000  Level FlightAware ADS-B
Wed 03:31:18 PM 41.8877 -113.3640 62° Northeast 414 476 37,000  Level FlightAware ADS-B
Wed 03:31:47 PM 41.9109 -113.2967 65° Northeast 415 478 37,000  Level FlightAware ADS-B
Wed 03:31:50 PM 41.9139 -113.2880 65° Northeast 415 478 37,000  Level FlightAware ADS-B
Wed 03:32:24 PM 41.9412 -113.2100 65° Northeast 415 478 37,000  Level FlightAware ADS-B
Wed 03:32:31 PM 41.9471 -113.1925 66° East 417 480 37,000  Level FlightAware ADS-B
Wed 03:32:56 PM 41.9671 -113.1340 65° Northeast 417 480 37,000  Level FlightAware ADS-B
Wed 03:33:01 PM 41.9714 -113.1221 64° Northeast 413 475 37,000  Level FlightAware ADS-B
Wed 03:33:26 PM 41.9913 -113.0640 65° Northeast 416 479 37,000  Level FlightAware ADS-B
Wed 03:33:31 PM 41.9949 -113.0537 65° Northeast 413 475 37,000  Level FlightAware ADS-B
Wed 03:33:58 PM 42.0166 -112.9910 65° Northeast 416 479 37,000  Level FlightAware ADS-B
Wed 03:34:03 PM 42.0200 -112.9805 66° East 416 479 37,000  Level FlightAware ADS-B
Wed 03:34:30 PM 42.0426 -112.9140 65° Northeast 415 478 37,000  Level FlightAware ADS-B
Wed 03:34:34 PM 42.0444 -112.9094 62° Northeast 415 478 37,000  Level FlightAware ADS-B
Wed 03:35:04 PM 42.0696 -112.8350 65° Northeast 415 478 37,000  Level FlightAware ADS-B
Wed 03:35:44 PM 42.1012 -112.7423 65° Northeast 413 475 37,000  Level FlightAware ADS-B
Wed 03:36:24 PM 42.1318 -112.6511 66° East 411 473 37,000  Level FlightAware ADS-B
Wed 03:36:54 PM 42.1558 -112.5796 66° East 410 472 37,000  Level FlightAware ADS-B
Wed 03:37:25 PM 42.1803 -112.5087 65° Northeast 402 463 37,000  Level FlightAware ADS-B
Wed 03:37:59 PM 42.2074 -112.4303 65° Northeast 403 464 37,000  Level FlightAware ADS-B
Wed 03:38:29 PM 42.2297 -112.3616 66° East 408 470 37,000  Level FlightAware ADS-B
Wed 03:38:42 PM 42.2399 -112.3300 67° East 408 470 37,000  Level FlightAware ADS-B
Wed 03:39:12 PM 42.2623 -112.2608 66° East 407 468 37,000  Level FlightAware ADS-B
Wed 03:39:50 PM 42.2910 -112.1727 66° East 408 470 37,000  Level FlightAware ADS-B
Wed 03:40:10 PM 42.3060 -112.1260 66° East 407 468 37,000  Level FlightAware ADS-B
Wed 03:40:29 PM 42.3206 -112.0815 66° East 409 471 37,000  Level FlightAware ADS-B
Wed 03:40:43 PM 42.3312 -112.0490 66° East 410 472 37,000  Level FlightAware ADS-B
Wed 03:41:08 PM 42.3504 -111.9894 66° East 411 473 37,000  Level FlightAware ADS-B
Wed 03:41:13 PM 42.3543 -111.9770 67° East 411 473 37,000  Level FlightAware ADS-B
Wed 03:41:44 PM 42.3773 -111.9060 66° East 412 474 37,000  Level FlightAware ADS-B
Wed 03:42:14 PM 42.4002 -111.8350 66° East 414 476 37,000  Level FlightAware ADS-B
Wed 03:42:42 PM 42.4219 -111.7674 66° East 414 476 37,000  Level FlightAware ADS-B
Wed 03:43:03 PM 42.4377 -111.7180 67° East 414 476 37,000  Level FlightAware ADS-B
Wed 03:43:26 PM 42.4553 -111.6630 66° East 414 476 37,000  Level FlightAware ADS-B
Wed 03:43:56 PM 42.4780 -111.5920 67° East 414 476 37,000  Level FlightAware ADS-B
Wed 03:45:06 PM 42.5300 -111.4280 67° East 411 473 37,000  Level FlightAware ADS-B
Wed 03:45:45 PM 42.5590 -111.3360 67° East 411 473 37,000  Level FlightAware ADS-B
Wed 03:46:23 PM 42.5840 -111.2600 66° East 411 473 37,000  Level FlightAware ADS-B
Wed 03:46:59 PM 42.6080 -111.1880 66° East 411 473 37,000  Level FlightAware ADS-B
Wed 03:47:35 PM 42.6310 -111.1150 67° East 411 473 37,000  Level FlightAware ADS-B
Wed 03:48:24 PM 42.6640 -111.0170 65° Northeast 411 473 37,000  Level FlightAware ADS-B
Wed 03:49:00 PM 42.6870 -110.9450 66° East 411 473 37,000  Level FlightAware ADS-B
Wed 03:50:00 PM 42.7270 -110.8240 66° East 411 473 37,000  Level FlightAware ADS-B
Wed 03:50:34 PM 42.7490 -110.7560 66° East 411 473 37,000  Level FlightAware ADS-B
Wed 03:51:12 PM 42.7740 -110.6790 66° East 411 473 37,000  Level FlightAware ADS-B
Wed 03:51:48 PM 42.7980 -110.6070 66° East 411 473 37,000  Level FlightAware ADS-B
Wed 03:52:24 PM 42.8210 -110.5340 67° East 411 473 37,000  Level FlightAware ADS-B
Wed 03:52:48 PM 42.8370 -110.4860 66° East 411 473 37,000  Level FlightAware ADS-B
Wed 03:53:48 PM 42.8770 -110.3650 66° East 411 473 37,000  Level FlightAware ADS-B
Wed 03:54:24 PM 42.9000 -110.2930 66° East 411 473 37,000  Level FlightAware ADS-B
Wed 03:55:01 PM 42.9250 -110.2180 66° East 411 473 37,000  Level FlightAware ADS-B
Wed 03:55:36 PM 42.9853 -109.9503 66° East 417 480 37,000  Level Salt Lake Center
Wed 03:56:38 PM 43.0353 -109.7831 68° East 425 489 37,000  Level Salt Lake Center
Wed 03:57:40 PM 43.0800 -109.6297 68° East 432 497 37,000  Level Salt Lake Center
Wed 03:58:42 PM 43.1256 -109.4772 68° East 434 499 37,000  Level Salt Lake Center
Wed 03:59:43 PM 43.1708 -109.3242 68° East 435 501 37,000  Level Salt Lake Center
Wed 04:00:45 PM 43.2153 -109.1697 68° East 438 504 37,000  Level Salt Lake Center
Wed 04:01:47 PM 43.2594 -109.0158 68° East 437 503 37,000  Level Salt Lake Center
Wed 04:02:49 PM 43.3131 -108.8303 68° East 437 503 37,000  Level Salt Lake Center
Wed 04:03:50 PM 43.3569 -108.6764 69° East 435 501 37,000  Level Salt Lake Center
Wed 04:04:52 PM 43.4006 -108.5208 69° East 438 504 37,000  Level Salt Lake Center
Wed 04:05:54 PM 43.4447 -108.3653 69° East 439 505 37,000  Level Salt Lake Center
Wed 04:10:44 PM 43.6690 -107.6020 69° East 433 498 37,000  Level FlightAware ADS-B
Wed 04:11:49 PM 43.7100 -107.4600 68° East 433 498 37,000  Level FlightAware ADS-B
Wed 04:12:25 PM 43.7330 -107.3810 68° East 433 498 37,000  Level FlightAware ADS-B
Wed 04:13:03 PM 43.7570 -107.2980 68° East 433 498 37,000  Level FlightAware ADS-B
Wed 04:13:57 PM 43.8120 -107.1050 68° East 433 498 37,000  Level FlightAware ADS-B
Wed 04:14:30 PM 43.8320 -107.0330 69° East 433 498 37,000  Level FlightAware ADS-B
Wed 04:15:06 PM 43.8550 -106.9550 68° East 433 498 37,000  Level FlightAware ADS-B
Wed 04:15:54 PM 43.8860 -106.8500 68° East 433 498 37,000  Level FlightAware ADS-B
Wed 04:16:30 PM 43.9090 -106.7710 68° East 433 498 37,000  Level FlightAware ADS-B
Wed 04:17:33 PM 43.9490 -106.6330 68° East 433 498 37,000  Level FlightAware ADS-B
Wed 04:18:10 PM 43.9730 -106.5510 68° East 433 498 37,000  Level FlightAware ADS-B
Wed 04:18:47 PM 43.9960 -106.4700 68° East 433 498 37,000  Level FlightAware ADS-B
Wed 04:19:11 PM 44.0120 -106.4170 67° East 433 498 37,000  Level FlightAware ADS-B
Wed 04:19:47 PM 44.0340 -106.3380 69° East 433 498 37,000  Level FlightAware ADS-B
Wed 04:20:23 PM 44.0570 -106.2590 68° East 433 498 37,000  Level FlightAware ADS-B
Wed 04:21:00 PM 44.0810 -106.1780 68° East 433 498 37,000  Level FlightAware ADS-B
Wed 04:21:36 PM 44.1040 -106.0990 68° East 433 498 37,000  Level FlightAware ADS-B
Wed 04:22:12 PM 44.1270 -106.0200 68° East 433 498 37,000  Level FlightAware ADS-B
Wed 04:22:48 PM 44.1500 -105.9410 68° East 433 498 37,000  Level FlightAware ADS-B
Wed 04:23:24 PM 44.1730 -105.8610 68° East 433 498 37,000  Level FlightAware ADS-B
Wed 04:24:01 PM 44.1960 -105.7800 68° East 433 498 37,000 1,165 Level FlightAware ADS-B
Wed 04:25:07 PM 44.0036 -105.2789 68° East 455 524 39,000 938 Climbing Denver Center
Wed 04:26:09 PM 44.0033 -105.0808 90° East 459 528 39,000  Level Denver Center
Wed 04:27:11 PM 44.0028 -104.9094 90° East 462 532 39,000  Level Denver Center
Wed 04:28:13 PM 44.0003 -104.7094 91° East 464 534 39,000  Level Denver Center
Wed 04:29:15 PM 44.0006 -104.5353 90° East 468 539 39,000  Level Denver Center
Wed 04:30:17 PM 43.9969 -104.3303 91° East 473 544 39,000  Level Denver Center
Wed 04:31:19 PM 43.9950 -104.1569 91° East 471 542 39,000  Level Denver Center
Wed 04:32:21 PM 43.9922 -103.9514 91° East 477 549 39,000  Level Denver Center
Wed 04:33:23 PM 43.9903 -103.7753 91° East 477 549 39,000  Level Denver Center
Wed 04:34:25 PM 43.9875 -103.5681 91° East 480 552 39,000  Level Denver Center
Wed 04:35:27 PM 43.9842 -103.3908 91° East 481 554 39,000  Level Denver Center
Wed 04:36:29 PM 43.9833 -103.1864 90° East 476 548 39,000  Level Denver Center
Wed 04:37:31 PM 43.9856 -103.0072 89° East 484 557 39,000  Level Denver Center
Wed 04:38:33 PM 44.0436 -102.8147 67° East 490 564 39,000  Level Denver Center
Wed 04:39:35 PM 44.1033 -102.6436 64° Northeast 492 566 39,000  Level Denver Center
Wed 04:40:37 PM 44.1597 -102.4711 65° Northeast 491 565 39,000  Level Denver Center
Wed 04:41:39 PM 44.2183 -102.2975 65° Northeast 495 570 39,000  Level Denver Center
Wed 04:42:40 PM 44.2706 -102.1206 68° East 494 568 39,000  Level Denver Center
Wed 04:43:42 PM 44.3311 -101.9475 64° Northeast 496 571 39,000  Level Denver Center
Wed 04:44:44 PM 44.3844 -101.7706 67° East 495 570 39,000  Level Denver Center
Wed 04:45:46 PM 44.4539 -101.5636 65° Northeast 491 565 39,000  Level Denver Center
Wed 04:46:48 PM 44.5078 -101.3856 67° East 495 570 39,000  Level Denver Center
Wed 04:47:50 PM 44.5636 -101.2117 66° East 492 566 39,000  Level Denver Center
Wed 04:48:52 PM 44.6178 -101.0375 66° East 489 563 39,000  Level Denver Center
Wed 04:49:54 PM 44.6714 -100.8642 66° East 486 559 39,000  Level Denver Center
Wed 04:51:08 PM 44.7389 -100.6575 65° Northeast 487 560 39,000  Level Minneapolis Center
Wed 04:56:40 PM 45.0420 -99.6620 65° Northeast 489 563 39,000  Level FlightAware ADS-B
Wed 04:57:19 PM 45.0710 -99.5650 67° East 489 563 39,000  Level FlightAware ADS-B
Wed 04:57:43 PM 45.0890 -99.5040 67° East 489 563 39,000  Level FlightAware ADS-B
Wed 04:58:42 PM 45.1330 -99.3560 67° East 489 563 39,000  Level FlightAware ADS-B
Wed 04:59:31 PM 45.1700 -99.2330 67° East 489 563 39,000  Level FlightAware ADS-B
Wed 05:00:07 PM 45.1970 -99.1430 67° East 489 563 39,000  Level FlightAware ADS-B
Wed 05:00:44 PM 45.2250 -99.0500 67° East 489 563 39,000  Level FlightAware ADS-B
Wed 05:01:08 PM 45.2430 -98.9900 67° East 489 563 39,000  Level FlightAware ADS-B
Wed 05:01:58 PM 45.2810 -98.8640 67° East 489 563 39,000  Level FlightAware ADS-B
Wed 05:02:21 PM 45.2980 -98.8060 67° East 489 563 39,000  Level FlightAware ADS-B
Wed 05:03:10 PM 45.3350 -98.6830 67° East 489 563 39,000  Level FlightAware ADS-B
Wed 05:03:44 PM 45.3600 -98.5970 67° East 489 563 39,000  Level FlightAware ADS-B
Wed 05:05:22 PM 45.4630 -98.0860 74° East 491 565 39,000  Level FlightAware ADS-B
Wed 05:06:21 PM 45.4900 -97.9120 77° East 491 565 39,000  Level FlightAware ADS-B
Wed 05:07:10 PM 45.5110 -97.7810 77° East 491 565 39,000  Level FlightAware ADS-B
Wed 05:07:46 PM 45.5270 -97.6840 77° East 491 565 39,000  Level FlightAware ADS-B
Wed 05:08:21 PM 45.5420 -97.5900 77° East 491 565 39,000  Level FlightAware ADS-B
Wed 05:08:57 PM 45.5670 -97.4100 79° East 494 568 39,000  Level FlightAware ADS-B
Wed 05:09:31 PM 45.5820 -97.3130 78° East 494 568 39,000  Level FlightAware ADS-B
Wed 05:10:33 PM 45.6130 -97.1030 78° East 496 571 39,000  Level FlightAware ADS-B
Wed 05:11:04 PM 45.6280 -97.0010 78° East 495 570 39,000  Level FlightAware ADS-B
Wed 05:12:09 PM 45.6580 -96.7940 78° East 496 571 39,000  Level FlightAware ADS-B
Wed 05:12:37 PM 45.6720 -96.7030 78° East 496 571 39,000  Level FlightAware ADS-B
Wed 05:13:19 PM 45.6910 -96.5700 78° East 497 572 39,000  Level FlightAware ADS-B
Wed 05:13:51 PM 45.7050 -96.4690 79° East 496 571 39,000  Level FlightAware ADS-B
Wed 05:14:55 PM 45.7340 -96.2640 78° East 498 573 39,000  Level FlightAware ADS-B
Wed 05:15:25 PM 45.7480 -96.1660 78° East 499 574 39,000  Level FlightAware ADS-B
Wed 05:16:00 PM 45.7640 -96.0520 79° East 501 577 39,000  Level FlightAware ADS-B
Wed 05:17:08 PM 45.7950 -95.8270 79° East 505 581 39,000  Level FlightAware ADS-B
Wed 05:17:39 PM 45.8080 -95.7290 79° East 507 583 39,000  Level FlightAware ADS-B
Wed 05:18:19 PM 45.8260 -95.5980 79° East 509 586 39,000  Level FlightAware ADS-B
Wed 05:18:50 PM 45.8400 -95.4940 79° East 511 588 39,000  Level FlightAware ADS-B
Wed 05:19:29 PM 45.8570 -95.3630 79° East 513 590 39,000  Level FlightAware ADS-B
Wed 05:20:05 PM 45.8730 -95.2420 79° East 513 590 39,000  Level FlightAware ADS-B
Wed 05:21:21 PM 45.9060 -94.9880 79° East 514 592 39,000  Level FlightAware ADS-B
Wed 05:21:49 PM 45.9180 -94.8950 79° East 514 592 39,000  Level FlightAware ADS-B
Wed 05:22:25 PM 45.9330 -94.7780 80° East 515 593 39,000  Level FlightAware ADS-B
Wed 05:23:01 PM 45.9480 -94.6560 80° East 515 593 39,000  Level FlightAware ADS-B
Wed 05:23:37 PM 45.9630 -94.5340 80° East 516 594 39,000  Level FlightAware ADS-B
Wed 05:24:08 PM 45.9770 -94.4250 79° East 515 593 39,000  Level FlightAware ADS-B
Wed 05:24:46 PM 45.9920 -94.3000 80° East 515 593 39,000  Level FlightAware ADS-B
Wed 05:25:18 PM 46.0050 -94.1950 80° East 515 593 39,000  Level FlightAware ADS-B
Wed 05:26:26 PM 46.0330 -93.9650 80° East 517 595 39,000  Level FlightAware ADS-B
Wed 05:27:06 PM 46.0490 -93.8280 80° East 517 595 39,000  Level FlightAware ADS-B
Wed 05:28:06 PM 46.0730 -93.6220 80° East 518 596 39,000  Level FlightAware ADS-B
Wed 05:29:06 PM 46.0960 -93.4220 81° East 519 597 39,000  Level FlightAware ADS-B
Wed 05:30:00 PM 46.1170 -93.2350 81° East 520 598 39,000  Level FlightAware ADS-B
Wed 05:30:38 PM 46.1320 -93.1060 80° East 521 600 39,000  Level FlightAware ADS-B
Wed 05:31:10 PM 46.1440 -92.9960 81° East 523 602 39,000  Level FlightAware ADS-B
Wed 05:31:50 PM 46.1590 -92.8570 81° East 525 604 39,000  Level FlightAware ADS-B
Wed 05:32:34 PM 46.1750 -92.7060 81° East 525 604 39,000  Level FlightAware ADS-B
Wed 05:33:24 PM 46.1940 -92.5330 81° East 526 605 39,000  Level FlightAware ADS-B
Wed 05:34:22 PM 46.2130 -92.3330 82° East 522 601 39,000  Level FlightAware ADS-B
Wed 05:35:18 PM 46.2080 -92.1400 92° East 513 590 39,000  Level FlightAware ADS-B
Wed 05:35:48 PM 46.2020 -92.0370 95° East 514 592 39,000  Level FlightAware ADS-B
Wed 05:36:45 PM 46.1900 -91.8440 95° East 510 587 39,000  Level FlightAware ADS-B
Wed 05:37:23 PM 46.1820 -91.7160 95° East 507 583 39,000  Level FlightAware ADS-B
Wed 05:38:19 PM 46.1690 -91.5290 96° East 511 588 39,000  Level FlightAware ADS-B
Wed 05:38:47 PM 46.1630 -91.4320 95° East 513 590 39,000  Level FlightAware ADS-B
Wed 05:39:24 PM 46.1550 -91.3060 95° East 516 594 39,000  Level FlightAware ADS-B
Wed 05:39:55 PM 46.1480 -91.2000 95° East 518 596 39,000  Level FlightAware ADS-B
Wed 05:40:27 PM 46.1400 -91.0920 96° East 520 598 39,000  Level FlightAware ADS-B
Wed 05:41:03 PM 46.1320 -90.9670 95° East 522 601 39,000  Level FlightAware ADS-B
Wed 05:41:35 PM 46.1240 -90.8590 96° East 522 601 39,000  Level FlightAware ADS-B
Wed 05:42:31 PM 46.1100 -90.6630 96° East 526 605 39,000  Level FlightAware ADS-B
Wed 05:43:07 PM 46.1010 -90.5360 96° East 528 608 39,000  Level FlightAware ADS-B
Wed 05:44:01 PM 46.0870 -90.3480 96° East 532 612 39,000  Level FlightAware ADS-B
Wed 05:44:31 PM 46.0780 -90.2420 97° East 533 613 39,000  Level FlightAware ADS-B
Wed 05:45:03 PM 46.0700 -90.1270 96° East 534 615 39,000  Level FlightAware ADS-B
Wed 05:45:53 PM 46.0560 -89.9510 96° East 536 617 39,000  Level FlightAware ADS-B
Wed 05:46:56 PM 46.0380 -89.7280 97° East 535 616 39,000  Level FlightAware ADS-B
Wed 05:47:47 PM 46.0230 -89.5510 97° East 533 613 39,000  Level FlightAware ADS-B
Wed 05:48:21 PM 46.0130 -89.4290 97° East 533 613 39,000  Level FlightAware ADS-B
Wed 05:49:01 PM 46.0010 -89.2880 97° East 532 612 39,000  Level FlightAware ADS-B
Wed 05:49:51 PM 45.9860 -89.1140 97° East 532 612 39,000  Level FlightAware ADS-B
Wed 05:51:03 PM 45.9640 -88.8640 97° East 535 616 39,000  Level FlightAware ADS-B
Wed 05:51:45 PM 45.9510 -88.7190 97° East 537 618 39,000  Level FlightAware ADS-B
Wed 05:52:46 PM 45.9340 -88.5230 97° East 537 618 39,000  Level FlightAware ADS-B
Wed 05:53:22 PM 45.9250 -88.4140 97° East 537 618 39,000  Level FlightAware ADS-B
Wed 05:54:23 PM 45.9090 -88.2310 97° East 537 618 39,000  Level FlightAware ADS-B
Wed 05:55:25 PM 45.8930 -88.0440 97° East 537 618 39,000  Level FlightAware ADS-B
Wed 05:55:59 PM 45.8840 -87.9420 97° East 537 618 39,000  Level FlightAware ADS-B
Wed 05:56:59 PM 45.8690 -87.7610 97° East 537 618 39,000  Level FlightAware ADS-B
Wed 05:57:59 PM 45.8530 -87.5800 97° East 537 618 39,000  Level FlightAware ADS-B
Wed 05:58:47 PM 45.8410 -87.4360 97° East 537 618 39,000  Level FlightAware ADS-B
Wed 06:00:42 PM 45.7610 -86.7960 100° East 552 635 39,000  Level FlightAware ADS-B
Wed 06:00:57 PM 45.7560 -86.7520 99° East 552 635 39,000  Level FlightAware ADS-B
Wed 06:01:47 PM 45.7350 -86.5580 99° East 553 636 39,000  Level FlightAware ADS-B
Wed 06:02:49 PM 45.7100 -86.3310 99° East 555 639 39,000  Level FlightAware ADS-B
Wed 06:03:42 PM 45.6880 -86.1420 99° East 555 639 39,000  Level FlightAware ADS-B
Wed 06:04:25 PM 45.6710 -85.9870 99° East 556 640 39,000  Level FlightAware ADS-B
Wed 06:05:09 PM 45.6530 -85.8350 100° East 557 641 39,000  Level FlightAware ADS-B
Wed 06:05:54 PM 45.6340 -85.6700 99° East 558 642 39,000  Level FlightAware ADS-B
Wed 06:06:22 PM 45.6210 -85.5610 100° East 557 641 39,000  Level FlightAware ADS-B
Wed 06:07:18 PM 45.5960 -85.3580 100° East 558 642 39,000  Level FlightAware ADS-B
Wed 06:08:13 PM 45.5720 -85.1620 100° East 557 641 39,000  Level FlightAware ADS-B
Wed 06:09:09 PM 45.5470 -84.9560 100° East 558 642 39,000  Level FlightAware ADS-B
Wed 06:09:42 PM 45.5320 -84.8400 100° East 556 640 39,000  Level FlightAware ADS-B
Wed 06:10:26 PM 45.5140 -84.6980 100° East 556 640 39,000  Level FlightAware ADS-B
Wed 06:11:14 PM 45.4900 -84.5120 100° East 557 641 39,000  Level FlightAware ADS-B
Wed 06:12:09 PM 45.4650 -84.3130 100° East 557 641 39,000  Level FlightAware ADS-B
Wed 06:12:37 PM 45.4510 -84.2110 101° East 557 641 39,000  Level FlightAware ADS-B
Wed 06:13:05 PM 45.4380 -84.1120 101° East 557 641 39,000  Level FlightAware ADS-B
Wed 06:14:06 PM 45.4090 -83.8900 100° East 556 640 39,000  Level FlightAware ADS-B
Wed 06:15:02 PM 45.3810 -83.6890 101° East 554 638 39,000  Level FlightAware ADS-B
Wed 06:15:54 PM 45.3560 -83.5040 101° East 551 634 39,000  Level FlightAware ADS-B
Wed 06:16:48 PM 45.3290 -83.3130 101° East 546 628 39,000  Level FlightAware ADS-B
Wed 06:17:32 PM 45.3080 -83.1670 102° East 544 626 39,000  Level FlightAware ADS-B
Wed 06:18:06 PM 45.2920 -83.0480 101° East 542 624 39,000  Level FlightAware ADS-B
Wed 06:19:03 PM 45.2620 -82.8440 102° East 540 621 39,000  Level FlightAware ADS-B
Wed 06:19:39 PM 45.2440 -82.7200 102° East 540 621 39,000  Level FlightAware ADS-B
Wed 06:20:23 PM 45.2220 -82.5680 102° East 540 621 39,000  Level FlightAware ADS-B
Wed 06:20:51 PM 45.2060 -82.4730 103° East 542 624 39,000  Level FlightAware ADS-B
Wed 06:21:44 PM 45.1710 -82.3010 106° East 540 621 39,000  Level FlightAware ADS-B
Wed 06:22:18 PM 45.1440 -82.1770 107° East 540 621 39,000  Level FlightAware ADS-B
Wed 06:23:10 PM 45.1050 -82.0050 108° East 542 624 39,000  Level FlightAware ADS-B
Wed 06:24:02 PM 45.0640 -81.8290 108° East 540 621 39,000  Level FlightAware ADS-B
Wed 06:24:59 PM 45.0210 -81.6420 108° East 540 621 39,000 -103 Level FlightAware ADS-B
Wed 06:25:58 PM 44.9750 -81.4400 108° East 536 617 38,800 -593 Descending FlightAware ADS-B
Wed 06:26:30 PM 44.9510 -81.3340 108° East 543 625 38,100 -1,352 Descending FlightAware ADS-B
Wed 06:27:09 PM 44.9210 -81.2050 108° East 552 635 37,200 -611 Descending FlightAware ADS-B
Wed 06:28:18 PM 44.8640 -80.9600 108° East 564 649 37,000 -119 Descending FlightAware ADS-B
Wed 06:28:50 PM 44.8370 -80.8470 109° East 561 646 37,000  Level FlightAware ADS-B
Wed 06:29:41 PM 44.7970 -80.6780 108° East 560 644 37,000  Level FlightAware ADS-B
Wed 06:30:30 PM 44.7550 -80.5040 109° East 557 641 37,000  Level FlightAware ADS-B
Wed 06:31:18 PM 44.7170 -80.3450 109° East 554 638 37,000  Level FlightAware ADS-B
Wed 06:31:51 PM 44.6890 -80.2320 109° East 552 635 37,000  Level FlightAware ADS-B
Wed 06:32:34 PM 44.6550 -80.0900 109° East 552 635 37,000  Level FlightAware ADS-B
Wed 06:33:36 PM 44.6010 -79.8720 109° East 553 636 37,000  Level FlightAware ADS-B
Wed 06:34:22 PM 44.5630 -79.7200 109° East 556 640 37,000  Level FlightAware ADS-B
Wed 06:34:53 PM 44.5360 -79.6160 110° East 557 641 37,000  Level FlightAware ADS-B
Wed 06:35:42 PM 44.4920 -79.4480 110° East 559 643 37,000  Level FlightAware ADS-B
Wed 06:36:04 PM 44.4720 -79.3740 111° Southeast 560 644 37,000  Level FlightAware ADS-B
Wed 06:36:40 PM 44.4390 -79.2500 110° East 561 646 37,000  Level FlightAware ADS-B
Wed 06:37:22 PM 44.4020 -79.1110 110° East 562 647 37,000  Level FlightAware ADS-B
Wed 06:37:55 PM 44.3720 -78.9990 111° Southeast 563 648 37,000  Level FlightAware ADS-B
Wed 06:38:55 PM 44.3170 -78.7950 111° Southeast 564 649 37,000  Level FlightAware ADS-B
Wed 06:39:26 PM 44.2890 -78.6920 111° Southeast 563 648 37,000  Level FlightAware ADS-B
Wed 06:40:18 PM 44.2420 -78.5170 110° East 562 647 37,000  Level FlightAware ADS-B
Wed 06:41:14 PM 44.1890 -78.3250 111° Southeast 562 647 37,000  Level FlightAware ADS-B
Wed 06:41:59 PM 44.1470 -78.1720 111° Southeast 560 644 37,000  Level FlightAware ADS-B
Wed 06:42:53 PM 44.0950 -77.9870 111° Southeast 557 641 37,000  Level FlightAware ADS-B
Wed 06:43:45 PM 44.0490 -77.8230 111° Southeast 554 638 37,000  Level FlightAware ADS-B
Wed 06:44:15 PM 44.0200 -77.7180 111° Southeast 550 633 37,000  Level FlightAware ADS-B
Wed 06:45:06 PM 43.9740 -77.5560 111° Southeast 545 627 37,000  Level FlightAware ADS-B
Wed 06:45:42 PM 43.9400 -77.4370 112° Southeast 540 621 37,000  Level FlightAware ADS-B
Wed 06:46:33 PM 43.8940 -77.2780 112° Southeast 533 613 37,000  Level FlightAware ADS-B
Wed 06:47:29 PM 43.8410 -77.0960 112° Southeast 523 602 37,000  Level FlightAware ADS-B
Wed 06:48:05 PM 43.8090 -76.9850 112° Southeast 517 595 37,000  Level FlightAware ADS-B
Wed 06:49:02 PM 43.7590 -76.8140 112° Southeast 511 588 37,000  Level FlightAware ADS-B
Wed 06:49:37 PM 43.7210 -76.7150 118° Southeast 510 587 37,000  Level FlightAware ADS-B
Wed 06:50:12 PM 43.6660 -76.6310 132° Southeast 506 582 37,000  Level FlightAware ADS-B
Wed 06:51:07 PM 43.5750 -76.5100 136° Southeast 500 575 37,000  Level FlightAware ADS-B
Wed 06:51:33 PM 43.5280 -76.4490 137° Southeast 497 572 37,000  Level FlightAware ADS-B
Wed 06:52:06 PM 43.4740 -76.3780 136° Southeast 497 572 37,000  Level FlightAware ADS-B
Wed 06:53:00 PM 43.3850 -76.2610 136° Southeast 495 570 37,000  Level FlightAware ADS-B
Wed 06:53:46 PM 43.3090 -76.1620 137° Southeast 495 570 37,000  Level FlightAware ADS-B
Wed 06:54:42 PM 43.2180 -76.0430 136° Southeast 497 572 37,000  Level FlightAware ADS-B
Wed 06:55:23 PM 43.1470 -75.9500 136° Southeast 497 572 37,000  Level FlightAware ADS-B
Wed 06:56:13 PM 43.0640 -75.8440 137° Southeast 498 573 37,000  Level FlightAware ADS-B
Wed 06:56:56 PM 42.9930 -75.7520 137° Southeast 499 574 37,000  Level FlightAware ADS-B
Wed 06:57:46 PM 42.9080 -75.6430 137° Southeast 500 575 37,000  Level FlightAware ADS-B
Wed 06:58:38 PM 42.8210 -75.5310 137° Southeast 500 575 37,000  Level FlightAware ADS-B
Wed 06:59:31 PM 42.7340 -75.4200 137° Southeast 500 575 37,000  Level FlightAware ADS-B
Wed 07:00:22 PM 42.6440 -75.3060 137° Southeast 512 589 37,000  Level FlightAware ADS-B
Wed 07:00:55 PM 42.5850 -75.2320 137° Southeast 517 595 37,000  Level FlightAware ADS-B
Wed 07:01:27 PM 42.5320 -75.1650 137° Southeast 519 597 37,000  Level FlightAware ADS-B
Wed 07:02:17 PM 42.4450 -75.0550 137° Southeast 520 598 37,000  Level FlightAware ADS-B
Wed 07:02:50 PM 42.3870 -74.9830 137° Southeast 518 596 37,000  Level FlightAware ADS-B
Wed 07:03:23 PM 42.3270 -74.9080 137° Southeast 517 595 37,000 -581 Level FlightAware ADS-B
Wed 07:04:23 PM 42.2230 -74.7780 137° Southeast 514 592 36,100 -1,677 Descending FlightAware ADS-B
Wed 07:04:56 PM 42.1640 -74.7050 137° Southeast 519 597 34,400 -3,247 Descending FlightAware ADS-B
Wed 07:05:48 PM 42.0730 -74.5930 138° Southeast 523 602 31,500 -3,409 Descending FlightAware ADS-B
Wed 07:06:24 PM 42.0070 -74.5120 138° Southeast 526 605 29,400 -2,550 Descending FlightAware ADS-B
Wed 07:07:08 PM 41.9200 -74.4330 146° Southeast 511 588 28,100 -2,242 Descending FlightAware ADS-B
Wed 07:07:55 PM 41.8210 -74.3630 152° Southeast 522 601 26,000 -2,274 Descending FlightAware ADS-B
Wed 07:08:43 PM 41.7160 -74.2910 153° Southeast 515 593 24,500 -2,133 Descending FlightAware ADS-B
Wed 07:09:25 PM 41.6270 -74.2290 152° Southeast 502 578 22,800 -2,681 Descending FlightAware ADS-B
Wed 07:10:17 PM 41.5220 -74.1560 152° Southeast 488 562 20,300 -1,647 Descending FlightAware ADS-B
Wed 07:11:07 PM 41.4210 -74.0950 156° South 475 547 20,000 -273 Descending FlightAware ADS-B
Wed 07:11:23 PM 41.3890 -74.0910 175° South 468 539 20,000  Level FlightAware ADS-B
Wed 07:12:16 PM 41.2920 -74.1430 202° Southwest 417 480 20,000  Level FlightAware ADS-B
Wed 07:13:10 PM 41.2130 -74.2100 213° Southwest 359 413 20,000 -81 Level FlightAware ADS-B
Wed 07:13:30 PM 41.1810 -74.2340 209° Southwest 349 402 19,900 -360 Descending FlightAware ADS-B
Wed 07:14:00 PM 41.1350 -74.2420 187° South 359 413 19,700 -581 Descending FlightAware ADS-B
Wed 07:14:32 PM 41.0800 -74.2260 168° South 370 426 19,300 -467 Descending FlightAware ADS-B
Wed 07:15:30 PM 40.9880 -74.1810 160° South 366 421 19,000 -337 Descending FlightAware ADS-B
Wed 07:16:01 PM 40.9400 -74.1610 163° South 364 419 18,800 -1,065 Descending FlightAware ADS-B
Wed 07:16:32 PM 40.8851 -74.1378 162° South 366 421 17,900 -1,662 Descending FlightAware ADS-B
Wed 07:17:06 PM 40.8308 -74.1156 163° South 360 414 17,000 -1,385 Descending FlightAware ADS-B
Wed 07:17:37 PM 40.7829 -74.0957 163° South 351 404 16,400 -897 Descending FlightAware ADS-B
Wed 07:18:33 PM 40.7010 -74.0600 162° South 345 397 15,700 -1,049 Descending FlightAware ADS-B
Wed 07:19:20 PM 40.6270 -74.0280 162° South 339 390 14,600 -1,412 Descending FlightAware ADS-B
Wed 07:19:58 PM 40.5730 -74.0050 162° South 337 388 13,700 -1,286 Descending FlightAware ADS-B
Wed 07:20:30 PM 40.5280 -73.9770 155° Southeast 336 387 13,100 -1,347 Descending FlightAware ADS-B
Wed 07:20:47 PM 40.5130 -73.9480 124° Southeast 335 386 12,600 -1,477 Descending FlightAware ADS-B
Wed 07:21:35 PM 40.4770 -73.8610 119° Southeast 326 375 11,500 -1,260 Descending FlightAware ADS-B
Wed 07:22:27 PM 40.4430 -73.7720 117° Southeast 315 362 10,500 -1,250 Descending FlightAware ADS-B
Wed 07:22:47 PM 40.4370 -73.7350 102° East 310 357 10,000 -1,385 Descending FlightAware ADS-B
Wed 07:23:06 PM 40.4410 -73.7020 81° East 307 353 9,600 -1,347 Descending FlightAware ADS-B
Wed 07:23:36 PM 40.4530 -73.6490 73° East 297 342 8,900 -1,368 Descending FlightAware ADS-B
Wed 07:24:03 PM 40.4710 -73.6060 61° Northeast 295 339 8,300 -1,222 Descending FlightAware ADS-B
Wed 07:24:30 PM 40.4880 -73.5640 62° Northeast 291 335 7,800 -1,059 Descending FlightAware ADS-B
Wed 07:24:54 PM 40.5080 -73.5330 50° Northeast 280 322 7,400 -1,224 Descending FlightAware ADS-B
Wed 07:25:19 PM 40.5350 -73.5070 36° Northeast 275 316 6,800 -1,385 Descending FlightAware ADS-B
Wed 07:25:46 PM 40.5650 -73.4820 32° Northeast 275 316 6,200 -1,300 Descending FlightAware ADS-B
Wed 07:26:19 PM 40.6000 -73.4550 30° Northeast 273 314 5,500 -1,400 Descending FlightAware ADS-B
Wed 07:26:46 PM 40.6310 -73.4310 30° Northeast 275 316 4,800 -787 Descending FlightAware ADS-B
Wed 07:27:20 PM 40.6690 -73.4050 27° Northeast 274 315 4,700 -130 Descending FlightAware ADS-B
Wed 07:27:32 PM 40.6840 -73.4010 11° North 268 308 4,700 -293 Level FlightAware ADS-B
Wed 07:28:01 PM 40.7130 -73.4190 335° Northwest 254 292 4,500 -873 Descending FlightAware ADS-B
Wed 07:28:27 PM 40.7330 -73.4510 310° West 257 296 3,900 -889 Descending FlightAware ADS-B
Wed 07:28:55 PM 40.7550 -73.4850 311° West 262 302 3,700 -643 Descending FlightAware ADS-B
Wed 07:29:23 PM 40.7700 -73.5220 298° West 253 291 3,300 -1,071 Descending FlightAware ADS-B
Wed 07:29:51 PM 40.7810 -73.5640 289° West 253 291 2,700 -1,304 Descending FlightAware ADS-B
Wed 07:30:09 PM 40.7860 -73.5910 284° West 251 289 2,300 -875 Descending FlightAware ADS-B
Wed 07:30:39 PM 40.7840 -73.6330 266° West 237 273 2,000 -621 Descending FlightAware ADS-B
Wed 07:31:07 PM 40.7630 -73.6620 226° Southwest 224 258 1,700 -340 Descending FlightAware ADS-B
Wed 07:31:32 PM 40.7420 -73.6800 213° Southwest 204 235 1,700 -261 Level FlightAware ADS-B
Wed 07:31:53 PM 40.7260 -73.6920 210° Southwest 190 219 1,500 -667 Descending FlightAware ADS-B
Wed 07:32:17 PM 40.7100 -73.7040 210° Southwest 153 176 1,200 -667 Descending FlightAware ADS-B
Wed 07:32:38 PM 40.6970 -73.7130 208° Southwest 134 154 1,000 -632 Descending FlightAware ADS-B
Wed 07:33:14 PM 40.6800 -73.7230 204° Southwest 125 144 600 -655 Descending FlightAware ADS-B
Wed 07:33:33 PM 40.6710 -73.7340 223° Southwest 122 140 400 -698 Descending FlightAware ADS-B
Wed 07:33:57 PM 40.6600 -73.7430 212° Southwest 123 142 100 -750 Descending FlightAware ADS-B
Wed 07:34:26 PM 40.6460 -73.7540 211° Southwest 125 144 -207 Descending FlightAware ADS-B

Login

Don't have an account? Register now (free) for customized features, flight alerts, and more!